Capitol Logistics 921

Operating for DHL



ENGM
Oslo Airport Gardermoen
Oslo, NO
EDDK
Cologne Bonn Airport
Cologne, DE

Route Details

Aircraft Information
Group: European Fleet
Types: A30F,A31F,B738
Route Data
Demand: V
Distance: 576nm
Duration: 2h 00m
Recm'd Route: VIPPA P615 ALS M852 HLZ P12 ESADU T858 KOPAG
Origin Wx: ENGM 272250Z 34007KT 300V010 CAVOK 08/02 Q1003
Dest. Wx: EDDK 272250Z AUTO VRB02KT CAVOK 09/05 Q1023 NOSIG
Notes:

Financial History
Total Freight: 231,880lbs
Average Load: 57,970lbs/flt
Fuel Used: 86,463lbs
Avg. Fuel Used: 21,616lbs/flt
Fuel Expense: $31,303
Avg. Fuel Expense: $7,826
Avg. Fuel Cost: $0.36/lbs
Total Gross Income: $489,829
Pilot Pay: $1,016
Total Expenses: $68,846
Total Revenue: $387,785
Average Revenue: $122,457.21